Terminal Aerodrome Forecast
Issued by NWS

Home | Current Version | Previous Version | Text Only | Print | Product List | Glossary Off
Versions: 1 2 3 4 5 6 7 8 9 10 11 12 13 14 15 16

000
FTUS43 KICT 030526
TAFRSL
TAF
KRSL 030526Z 0306/0406 VRB04KT P6SM OVC100
     FM031000 VRB04KT P6SM OVC040
     FM031300 12006KT 6SM -RASN OVC020
     FM031800 12006KT 3SM -RASN OVC008=

USA.gov is the U.S. government's official web portal to all federal, state and local government web resources and services.